CheckWX is a tool to help pilots better visualize weather data.  It is not intended as a substitute for an official pre-flight weather briefing.

15:58:16 UTC

KCDN METAR
Woodward Field Airport
Camden, South Carolina, USA
Current

23 mins ago

KCDN 231535Z AUTO VRB04KT 9SM SCT021 BKN046 26/21 A3030 RMK AO2
Observed
May-23 @ 15:35 UTC
Wind
  • Variable at 4 KTS
Visibility
9 SM
Flight Rules
VFR
Cloud Levels
  • Scattered at 2,100' AGL
  • Broken at 4,600' AGL
Temperature
26°C / 79°F
Dewpoint
21°C / 70°F
Humidity
74%
Altimeter
30.3" Hg
Pressure
1026.12 hPa
Previous

43 mins ago

KCDN 231515Z AUTO 25003KT 9SM FEW018 SCT032 OVC046 26/21 A3031 RMK AO2
Observed
May-23 @ 15:15 UTC
Wind
  • 250° at 3 KTS
Visibility
9 SM
Flight Rules
VFR
Cloud Levels
  • Few at 1,800' AGL
  • Scattered at 3,200' AGL
  • Overcast at 4,600' AGL
Temperature
26°C / 79°F
Dewpoint
21°C / 70°F
Humidity
74%
Altimeter
30.31" Hg
Pressure
1026.42 hPa
Previous

1 hour ago

KCDN 231455Z AUTO 00000KT 8SM FEW016 SCT021 BKN033 26/21 A3031 RMK AO2
Observed
May-23 @ 14:55 UTC
Visibility
8 SM
Flight Rules
VFR
Cloud Levels
  • Few at 1,600' AGL
  • Scattered at 2,100' AGL
  • Broken at 3,300' AGL
Temperature
26°C / 79°F
Dewpoint
21°C / 70°F
Humidity
74%
Altimeter
30.31" Hg
Pressure
1026.42 hPa